Time;durP1;ratioP1;P1;durP2;ratioP2;P2;SDS_P1;SDS_P2;PMS_P1;PMS_P2;Temp;Humidity;BMP_temperature;BMP_pressure;BME280_temperature;BME280_humidity;BME280_pressure;Samples;Min_cycle;Max_cycle;Signal;HPM_P1;HPM_P2
2021/03/18 00:00:41;;;;;;;31.83;10.40;;;0.10;99.90;;;;;;4923403;28;20099;-81
2021/03/18 00:03:06;;;;;;;27.25;10.35;;;0.10;99.90;;;;;;4924628;28;20839;-81
2021/03/18 00:05:28;;;;;;;28.25;10.05;;;0.00;99.90;;;;;;4922843;28;20402;-82
2021/03/18 00:07:51;;;;;;;27.90;9.55;;;0.00;99.90;;;;;;4907817;28;20097;-80
2021/03/18 00:10:15;;;;;;;21.67;8.23;;;0.10;99.90;;;;;;4893482;28;20100;-81
2021/03/18 00:12:38;;;;;;;41.00;8.82;;;0.00;99.90;;;;;;4914537;28;20420;-81
2021/03/18 00:15:06;;;;;;;29.42;8.63;;;0.00;99.90;;;;;;4924457;28;20173;-82
2021/03/18 00:17:29;;;;;;;39.55;9.48;;;-0.10;99.90;;;;;;4922508;28;20150;-79
2021/03/18 00:19:52;;;;;;;32.08;8.52;;;-0.20;99.90;;;;;;4926017;28;20595;-80
2021/03/18 00:22:15;;;;;;;71.22;10.05;;;-0.20;99.90;;;;;;4924822;28;20083;-80
2021/03/18 00:24:38;;;;;;;42.90;9.00;;;-0.30;99.90;;;;;;4923736;28;20118;-79
2021/03/18 00:27:00;;;;;;;41.90;8.60;;;-0.30;99.90;;;;;;4925549;28;20123;-81
2021/03/18 00:29:23;;;;;;;34.13;9.07;;;-0.40;99.90;;;;;;4923186;28;20524;-80
2021/03/18 00:31:46;;;;;;;47.47;9.48;;;-0.40;99.90;;;;;;4921098;28;20097;-81
2021/03/18 00:34:09;;;;;;;27.10;7.88;;;-0.40;99.90;;;;;;4925225;28;20448;-80
2021/03/18 00:36:32;;;;;;;42.85;8.13;;;;;;;;;;4909102;28;20087;-81
2021/03/18 00:38:55;;;;;;;31.17;8.75;;;;;;;;;;4906068;28;20082;-82
2021/03/18 00:41:19;;;;;;;31.20;8.13;;;-0.40;99.90;;;;;;4905574;28;20088;-79
2021/03/18 00:43:43;;;;;;;21.65;6.95;;;-0.40;99.90;;;;;;4906726;28;21214;-80
2021/03/18 00:46:06;;;;;;;32.95;9.00;;;-0.50;99.90;;;;;;4902786;28;20453;-79
2021/03/18 00:48:30;;;;;;;19.15;7.50;;;-0.50;99.90;;;;;;4906987;28;20085;-80
2021/03/18 00:50:54;;;;;;;25.98;8.05;;;-0.50;99.90;;;;;;4901621;28;20171;-80
2021/03/18 00:53:21;;;;;;;34.58;7.68;;;-0.50;99.90;;;;;;4906471;28;20574;-80
2021/03/18 00:55:45;;;;;;;20.95;7.13;;;-0.50;99.90;;;;;;4923576;28;20099;-81
2021/03/18 00:58:09;;;;;;;16.30;7.22;;;-0.50;99.90;;;;;;4921864;28;20612;-81
2021/03/18 01:00:36;;;;;;;27.27;7.63;;;-0.50;99.90;;;;;;4921969;28;20109;-80
2021/03/18 01:02:59;;;;;;;19.38;7.53;;;-0.60;99.90;;;;;;4922638;28;20089;-80
2021/03/18 01:05:28;;;;;;;19.33;7.93;;;-0.60;99.90;;;;;;4914301;28;20168;-80
2021/03/18 01:07:51;;;;;;;29.50;8.85;;;-0.60;99.90;;;;;;4922163;28;20084;-80
2021/03/18 01:10:17;;;;;;;21.67;7.63;;;-0.60;99.90;;;;;;4923363;28;20094;-80
2021/03/18 01:12:40;;;;;;;21.75;7.60;;;-0.70;99.90;;;;;;4924692;28;20186;-83
2021/03/18 01:15:05;;;;;;;28.35;8.38;;;-0.70;99.90;;;;;;4921667;28;20085;-79
2021/03/18 01:17:28;;;;;;;34.45;8.13;;;-0.60;99.90;;;;;;4923607;28;20536;-80
2021/03/18 01:19:51;;;;;;;18.95;8.38;;;-0.60;99.90;;;;;;4924914;28;20570;-80
2021/03/18 01:22:14;;;;;;;16.90;7.47;;;-0.60;99.90;;;;;;4927735;28;20091;-79
2021/03/18 01:24:36;;;;;;;15.68;7.60;;;-0.60;99.90;;;;;;4929331;28;20461;-80
2021/03/18 01:27:00;;;;;;;16.95;7.72;;;-0.60;99.90;;;;;;4925719;28;20112;-80
2021/03/18 01:29:24;;;;;;;19.65;6.88;;;-0.60;99.90;;;;;;4929297;28;20092;-80
2021/03/18 01:31:47;;;;;;;19.42;7.95;;;-0.60;99.90;;;;;;4928006;28;20113;-80
2021/03/18 01:34:10;;;;;;;21.08;8.82;;;-0.60;99.90;;;;;;4927172;28;20085;-79
2021/03/18 01:36:34;;;;;;;21.73;9.50;;;-0.60;99.90;;;;;;4927445;28;20101;-80
2021/03/18 01:38:58;;;;;;;21.63;8.57;;;-0.60;99.90;;;;;;4927552;28;20118;-80
2021/03/18 01:41:23;;;;;;;21.40;8.30;;;-0.60;99.90;;;;;;4927023;28;20461;-80
2021/03/18 01:43:47;;;;;;;23.30;8.93;;;-0.60;99.90;;;;;;4918615;28;20095;-79
2021/03/18 01:46:10;;;;;;;21.35;8.93;;;-0.50;99.90;;;;;;4925053;28;20089;-80
2021/03/18 01:48:33;;;;;;;25.38;9.65;;;-0.40;99.90;;;;;;4911514;28;20566;-79
2021/03/18 01:50:56;;;;;;;22.23;9.93;;;;;;;;;;4927074;28;20099;-80
2021/03/18 01:53:23;;;;;;;24.13;9.73;;;-0.40;99.90;;;;;;4925933;28;20574;-80
2021/03/18 01:55:47;;;;;;;24.98;11.05;;;-0.40;99.90;;;;;;4928131;28;20105;-81
2021/03/18 01:58:10;;;;;;;28.03;10.37;;;;;;;;;;4927882;28;20088;-80
2021/03/18 02:00:36;;;;;;;24.95;10.65;;;-0.30;99.90;;;;;;4927347;28;20176;-81
2021/03/18 02:03:00;;;;;;;27.75;12.00;;;-0.30;99.90;;;;;;4927179;28;20097;-80
2021/03/18 02:05:26;;;;;;;30.20;12.75;;;-0.20;99.90;;;;;;4927690;28;20174;-80
2021/03/18 02:07:52;;;;;;;28.05;12.18;;;0.00;99.90;;;;;;4925773;28;20105;-80
2021/03/18 02:10:15;;;;;;;31.38;12.80;;;0.10;99.90;;;;;;4928491;28;20089;-80
2021/03/18 02:12:38;;;;;;;27.13;11.60;;;0.10;99.90;;;;;;4926335;28;20518;-81
2021/03/18 02:15:01;;;;;;;27.55;12.63;;;0.10;99.90;;;;;;4928658;28;20166;-80
2021/03/18 02:17:35;;;;;;;29.17;12.95;;;0.10;99.90;;;;;;4926611;28;20141;-80
2021/03/18 02:20:36;;;;;;;36.13;13.80;;;0.10;99.90;;;;;;4925468;28;20153;-80
2021/03/18 02:23:37;;;;;;;35.47;12.43;;;0.20;99.90;;;;;;4924981;28;20175;-81
2021/03/18 02:26:15;;;;;;;30.67;12.65;;;0.20;99.90;;;;;;4906261;28;20128;-82
2021/03/18 02:29:01;;;;;;;42.15;13.00;;;0.10;99.90;;;;;;4924583;28;20076;-82
2021/03/18 02:31:32;;;;;;;;;;;0.10;99.90;;;;;;4906810;28;20176;-81
2021/03/18 02:34:32;;;;;;;30.95;11.13;;;0.10;99.90;;;;;;4926558;28;20393;-81
2021/03/18 02:37:00;;;;;;;33.40;13.10;;;0.00;99.90;;;;;;4922632;28;20170;-81
2021/03/18 02:39:26;;;;;;;31.50;12.93;;;-0.10;99.90;;;;;;4926966;28;20097;-81
2021/03/18 02:41:53;;;;;;;33.30;13.30;;;-0.20;99.90;;;;;;4926234;28;20544;-81
2021/03/18 02:44:20;;;;;;;30.95;12.32;;;-0.30;99.90;;;;;;4913927;28;20171;-81
2021/03/18 02:46:44;;;;;;;32.63;12.98;;;-0.30;99.90;;;;;;4916111;28;20089;-81
2021/03/18 02:49:08;;;;;;;30.77;12.43;;;-0.40;99.90;;;;;;4926389;28;20476;-81
2021/03/18 02:51:33;;;;;;;29.55;13.05;;;-0.50;99.90;;;;;;4925356;28;20092;-80
2021/03/18 02:54:02;;;;;;;29.40;12.85;;;-0.60;99.90;;;;;;4928491;28;20091;-81
2021/03/18 02:56:26;;;;;;;41.53;13.90;;;-0.60;99.90;;;;;;4925047;28;20089;-81
2021/03/18 02:58:52;;;;;;;30.48;12.00;;;-0.70;99.90;;;;;;4924978;28;20103;-81
2021/03/18 03:01:16;;;;;;;32.40;11.88;;;-0.70;99.90;;;;;;4925884;28;20542;-81
2021/03/18 03:03:39;;;;;;;29.52;12.10;;;-0.80;99.90;;;;;;4925026;28;20131;-80
2021/03/18 03:06:04;;;;;;;28.23;12.88;;;-0.80;99.90;;;;;;4915575;28;20217;-80
2021/03/18 03:08:29;;;;;;;30.48;12.50;;;-0.80;99.90;;;;;;4923617;28;20085;-80
2021/03/18 03:10:56;;;;;;;30.95;12.13;;;-0.80;99.90;;;;;;4925483;28;20101;-80
2021/03/18 03:13:21;;;;;;;28.90;11.88;;;;;;;;;;4925452;28;20452;-82
2021/03/18 03:15:46;;;;;;;31.17;12.73;;;-0.60;99.90;;;;;;4911226;28;20094;-81
2021/03/18 03:18:11;;;;;;;30.63;14.38;;;-0.70;99.90;;;;;;4924225;28;20175;-80
2021/03/18 03:20:34;;;;;;;30.67;12.85;;;-0.80;99.90;;;;;;4924325;28;20549;-80
2021/03/18 03:22:59;;;;;;;35.72;12.95;;;-0.70;99.90;;;;;;4926464;28;20534;-81
2021/03/18 03:25:23;;;;;;;34.10;12.70;;;-0.70;99.90;;;;;;4923130;28;20096;-81
2021/03/18 03:27:48;;;;;;;31.67;11.63;;;-0.80;99.90;;;;;;4925705;28;20109;-80
2021/03/18 03:30:13;;;;;;;32.13;10.50;;;-0.90;99.90;;;;;;4925412;28;20098;-80
2021/03/18 03:32:36;;;;;;;28.02;12.10;;;-0.70;99.90;;;;;;4924177;28;20119;-81
2021/03/18 03:35:00;;;;;;;30.65;12.52;;;-0.80;99.90;;;;;;4925571;28;20105;-81
2021/03/18 03:37:23;;;;;;;28.63;12.93;;;-0.70;99.90;;;;;;4924001;28;20169;-81
2021/03/18 03:39:46;;;;;;;31.67;12.90;;;-0.60;99.90;;;;;;4905789;28;20095;-82
2021/03/18 03:42:11;;;;;;;46.28;13.93;;;-0.60;99.90;;;;;;4917801;28;20085;-81
2021/03/18 03:44:39;;;;;;;40.20;13.25;;;-0.60;99.90;;;;;;4925369;28;20105;-80
2021/03/18 03:47:02;;;;;;;34.35;13.77;;;;;;;;;;4925584;28;20085;-80
2021/03/18 03:49:24;;;;;;;30.85;14.63;;;-0.70;99.90;;;;;;4923250;28;20182;-80
2021/03/18 03:51:54;;;;;;;38.60;14.13;;;-0.80;99.90;;;;;;4925346;28;20489;-80
2021/03/18 03:54:21;;;;;;;26.85;12.82;;;-0.80;99.90;;;;;;4923862;28;20457;-80
2021/03/18 03:56:50;;;;;;;31.55;13.10;;;-0.70;99.90;;;;;;4923895;28;20560;-79
2021/03/18 03:59:17;;;;;;;28.35;12.50;;;-0.80;99.90;;;;;;4922931;28;20149;-80
2021/03/18 04:01:45;;;;;;;27.13;12.52;;;-0.80;99.90;;;;;;4925829;28;20086;-80
2021/03/18 04:04:12;;;;;;;28.00;11.48;;;-0.90;99.90;;;;;;4919153;28;20136;-80
2021/03/18 04:06:38;;;;;;;29.25;12.00;;;-0.90;99.90;;;;;;4925185;28;20517;-80
2021/03/18 04:09:02;;;;;;;28.25;12.55;;;-1.00;99.90;;;;;;4923439;28;20541;-79
2021/03/18 04:11:26;;;;;;;27.00;10.80;;;-1.20;99.90;;;;;;4924169;28;20107;-80
2021/03/18 04:13:51;;;;;;;26.60;11.20;;;-0.70;99.90;;;;;;4924115;28;20668;-80
2021/03/18 04:16:15;;;;;;;30.75;12.77;;;-1.50;99.90;;;;;;4924574;28;20208;-78
2021/03/18 04:18:42;;;;;;;18.50;7.67;;;-1.60;99.90;;;;;;4924155;28;20089;-80
2021/03/18 04:21:08;;;;;;;27.35;10.95;;;-1.60;99.90;;;;;;4916839;28;20451;-79
2021/03/18 04:23:32;;;;;;;26.25;11.18;;;-1.60;99.90;;;;;;4922423;28;20093;-79
2021/03/18 04:25:57;;;;;;;24.55;10.43;;;-1.70;99.90;;;;;;4924605;28;20095;-78
2021/03/18 04:28:20;;;;;;;21.02;10.27;;;-1.60;99.90;;;;;;4922694;28;20090;-79
2021/03/18 04:30:44;;;;;;;39.75;12.30;;;-1.70;99.90;;;;;;4923366;28;20188;-80
2021/03/18 04:33:08;;;;;;;27.60;12.10;;;-1.70;99.90;;;;;;4907472;28;20093;-80
2021/03/18 04:35:32;;;;;;;31.60;11.98;;;-1.70;99.90;;;;;;4903893;28;20092;-79
2021/03/18 04:37:59;;;;;;;30.20;12.90;;;-1.70;99.90;;;;;;4923259;28;20098;-79
2021/03/18 04:40:23;;;;;;;34.72;12.68;;;-1.70;99.90;;;;;;4923916;28;20091;-79
2021/03/18 04:42:47;;;;;;;34.75;12.93;;;-1.80;99.90;;;;;;4922630;28;20137;-79
2021/03/18 04:45:13;;;;;;;30.10;11.98;;;-1.70;99.90;;;;;;4924588;28;20086;-79
2021/03/18 04:47:39;;;;;;;29.15;11.50;;;-1.60;99.90;;;;;;4922574;28;20132;-79
2021/03/18 04:50:03;;;;;;;28.25;12.32;;;-1.40;99.90;;;;;;4923418;28;20093;-79
2021/03/18 04:52:27;;;;;;;32.30;12.88;;;-1.40;99.90;;;;;;4914922;28;21094;-80
2021/03/18 04:54:50;;;;;;;29.52;12.35;;;-1.30;99.90;;;;;;4924359;28;20582;-78
2021/03/18 04:57:16;;;;;;;31.90;11.07;;;-1.20;99.90;;;;;;4925294;28;20082;-79
2021/03/18 04:59:42;;;;;;;30.25;12.50;;;-1.20;99.90;;;;;;4928676;28;20109;-79
2021/03/18 05:02:07;;;;;;;31.00;13.80;;;-1.00;99.90;;;;;;4926806;28;20105;-79
2021/03/18 05:04:33;;;;;;;38.22;14.15;;;-1.00;99.90;;;;;;4927954;28;20098;-80
2021/03/18 05:06:55;;;;;;;38.25;13.98;;;-0.80;99.90;;;;;;4926649;28;20627;-79
2021/03/18 05:09:21;;;;;;;32.25;13.00;;;-0.90;99.90;;;;;;4927229;28;20168;-79
2021/03/18 05:11:44;;;;;;;35.13;14.38;;;-1.00;99.90;;;;;;4925852;28;20506;-80
2021/03/18 05:14:09;;;;;;;43.40;15.02;;;-0.90;99.90;;;;;;4911492;28;20780;-79
2021/03/18 05:16:33;;;;;;;38.20;14.90;;;-1.00;99.90;;;;;;4925168;28;20092;-80
2021/03/18 05:18:56;;;;;;;39.15;15.23;;;-0.90;99.90;;;;;;4926807;28;20456;-80
2021/03/18 05:21:19;;;;;;;41.30;15.35;;;-0.80;99.90;;;;;;4926374;28;20093;-80
2021/03/18 05:23:42;;;;;;;41.25;16.42;;;;;;;;;;4917152;28;20122;-80
2021/03/18 05:26:06;;;;;;;53.08;18.08;;;-0.50;99.90;;;;;;4926880;28;20093;-80
2021/03/18 05:28:29;;;;;;;62.25;18.15;;;-0.40;99.90;;;;;;4920538;28;20081;-80
2021/03/18 05:30:52;;;;;;;58.35;18.25;;;-0.30;99.90;;;;;;4927241;28;20093;-80
2021/03/18 05:33:14;;;;;;;121.47;17.58;;;-0.20;99.90;;;;;;4927326;28;20085;-79
2021/03/18 05:35:39;;;;;;;75.18;19.13;;;-0.20;99.90;;;;;;4927330;28;20097;-80
2021/03/18 05:38:02;;;;;;;63.70;19.40;;;-0.20;99.90;;;;;;4926129;28;20689;-80
2021/03/18 05:40:25;;;;;;;83.97;17.67;;;-0.20;99.90;;;;;;4907817;28;20091;-79
2021/03/18 05:42:49;;;;;;;107.70;15.15;;;-0.20;99.90;;;;;;4911103;28;20100;-80
2021/03/18 05:45:13;;;;;;;83.43;15.70;;;-0.30;99.90;;;;;;4908822;28;20171;-80
2021/03/18 05:47:37;;;;;;;83.77;15.57;;;-0.40;99.90;;;;;;4925858;28;20564;-80
2021/03/18 05:50:01;;;;;;;86.30;16.20;;;-0.40;99.90;;;;;;4928081;28;20878;-81
2021/03/18 05:52:24;;;;;;;48.58;14.18;;;-0.40;99.90;;;;;;4926339;28;20106;-80
2021/03/18 05:54:48;;;;;;;87.95;15.98;;;-0.50;99.90;;;;;;4927766;28;20093;-80
2021/03/18 05:57:12;;;;;;;84.57;17.08;;;-0.50;99.90;;;;;;4925382;28;20086;-80
2021/03/18 05:59:36;;;;;;;67.50;15.65;;;-0.50;99.90;;;;;;4925874;28;20088;-81
2021/03/18 06:01:59;;;;;;;64.82;15.60;;;-0.60;99.90;;;;;;4927287;28;20152;-80
2021/03/18 06:04:23;;;;;;;51.45;13.63;;;-0.50;99.90;;;;;;4925921;28;20095;-79
2021/03/18 06:06:46;;;;;;;63.58;15.98;;;-0.50;99.90;;;;;;4926171;28;20107;-81
2021/03/18 06:09:09;;;;;;;56.50;14.45;;;;;;;;;;4925728;28;20490;-79
2021/03/18 06:11:32;;;;;;;50.70;13.35;;;-0.50;99.90;;;;;;4927524;28;20530;-80
2021/03/18 06:13:54;;;;;;;53.50;14.88;;;-0.50;99.90;;;;;;4926758;28;20556;-79
2021/03/18 06:16:19;;;;;;;70.25;15.77;;;-0.50;99.90;;;;;;4927402;28;20092;-79
2021/03/18 06:18:43;;;;;;;69.70;15.45;;;-0.60;99.90;;;;;;4925015;28;20448;-81
2021/03/18 06:21:07;;;;;;;60.22;14.15;;;-0.60;99.90;;;;;;4925885;28;20097;-79
2021/03/18 06:23:31;;;;;;;45.78;15.35;;;-0.50;99.90;;;;;;4916905;28;20087;-79
2021/03/18 06:25:55;;;;;;;43.60;14.60;;;;;;;;;;4909097;28;20089;-80
2021/03/18 06:28:21;;;;;;;46.75;14.25;;;-0.40;99.90;;;;;;4906016;28;20498;-80
2021/03/18 06:30:57;;;;;;;46.35;14.65;;;-0.30;99.90;;;;;;4926664;28;20149;-81
2021/03/18 06:33:23;;;;;;;50.25;14.75;;;-0.20;99.90;;;;;;4923725;28;20547;-80
2021/03/18 06:35:46;;;;;;;48.85;15.07;;;-0.20;99.90;;;;;;4924886;28;20089;-80
2021/03/18 06:38:08;;;;;;;36.60;15.00;;;-0.20;99.90;;;;;;4915560;28;20135;-79
2021/03/18 06:40:39;;;;;;;60.75;15.77;;;-0.10;99.90;;;;;;4925371;28;20179;-80
2021/03/18 06:43:03;;;;;;;48.30;15.65;;;0.10;99.90;;;;;;4911159;28;20089;-80
2021/03/18 06:45:31;;;;;;;44.60;15.73;;;0.30;99.90;;;;;;4917292;28;20167;-80
2021/03/18 06:47:56;;;;;;;65.85;17.92;;;0.70;99.90;;;;;;4924024;28;20079;-80
2021/03/18 06:50:22;;;;;;;48.47;16.10;;;0.80;99.90;;;;;;4908217;28;20091;-80
2021/03/18 06:52:45;;;;;;;53.20;17.40;;;1.30;99.90;;;;;;4907334;28;20096;-81
2021/03/18 06:55:11;;;;;;;44.47;16.17;;;1.40;99.90;;;;;;4906448;28;20082;-81
2021/03/18 06:57:34;;;;;;;52.88;16.85;;;1.70;99.90;;;;;;4906271;28;20811;-81
2021/03/18 06:59:56;;;;;;;53.88;16.25;;;1.70;99.90;;;;;;4907620;28;20173;-80
2021/03/18 07:02:20;;;;;;;49.92;15.27;;;1.80;99.90;;;;;;4910100;28;20598;-81
2021/03/18 07:04:45;;;;;;;42.78;16.17;;;1.90;99.90;;;;;;4907462;28;20090;-80
2021/03/18 07:07:11;;;;;;;35.15;13.88;;;1.90;99.90;;;;;;4896908;28;20525;-81
2021/03/18 07:09:36;;;;;;;35.15;13.45;;;1.90;99.90;;;;;;4903800;28;20102;-81
2021/03/18 07:12:01;;;;;;;45.90;13.32;;;2.20;99.90;;;;;;4906388;28;20126;-82
2021/03/18 07:14:33;;;;;;;44.47;12.37;;;2.50;99.90;;;;;;4905716;28;20082;-81
2021/03/18 07:16:56;;;;;;;34.13;11.30;;;2.80;99.90;;;;;;4925117;28;20504;-81
2021/03/18 07:19:23;;;;;;;25.83;11.35;;;3.10;99.90;;;;;;4922010;28;20090;-82
2021/03/18 07:21:46;;;;;;;25.77;11.68;;;3.60;99.90;;;;;;4923003;28;20656;-82
2021/03/18 07:24:25;;;;;;;29.00;11.05;;;4.70;99.90;;;;;;4916136;28;20383;-82
2021/03/18 07:26:48;;;;;;;23.27;10.45;;;5.40;99.90;;;;;;4923512;28;20173;-82
2021/03/18 07:29:15;;;;;;;21.02;9.45;;;5.60;99.90;;;;;;4924340;28;20127;-83
2021/03/18 07:31:39;;;;;;;26.70;8.57;;;5.30;99.90;;;;;;4921289;28;20091;-82
2021/03/18 07:34:01;;;;;;;24.73;9.13;;;5.10;99.90;;;;;;4923924;28;20090;-81
2021/03/18 07:36:25;;;;;;;38.53;8.93;;;4.80;99.90;;;;;;4925647;28;21898;-81
2021/03/18 07:38:48;;;;;;;26.00;9.50;;;4.90;99.90;;;;;;4905818;28;20170;-82
2021/03/18 07:41:14;;;;;;;16.80;8.68;;;4.70;99.90;;;;;;4907149;28;20437;-80
2021/03/18 07:43:39;;;;;;;17.45;8.90;;;4.90;99.90;;;;;;4906876;28;20781;-82
2021/03/18 07:46:02;;;;;;;16.70;7.78;;;4.80;99.90;;;;;;4905315;28;20098;-82
2021/03/18 07:48:28;;;;;;;19.90;8.93;;;4.80;99.90;;;;;;4905738;28;20087;-81
2021/03/18 07:50:54;;;;;;;25.55;8.38;;;4.90;99.90;;;;;;4923152;28;20561;-82
2021/03/18 07:53:19;;;;;;;19.60;8.95;;;4.70;99.90;;;;;;4924094;28;20406;-81
2021/03/18 07:55:43;;;;;;;23.98;9.85;;;4.70;99.90;;;;;;4923929;28;20139;-80
2021/03/18 07:58:07;;;;;;;38.72;9.35;;;4.40;99.90;;;;;;4924923;28;20097;-81
2021/03/18 08:00:32;;;;;;;29.50;8.90;;;4.10;99.90;;;;;;4924806;28;20179;-82
2021/03/18 08:03:24;;;;;;;21.42;9.40;;;3.90;99.90;;;;;;4924158;28;20148;-81
2021/03/18 08:05:47;;;;;;;24.95;9.07;;;3.70;99.90;;;;;;4897910;28;20158;-81
2021/03/18 08:08:30;;;;;;;27.85;9.40;;;3.60;99.90;;;;;;4903318;28;20193;-81
2021/03/18 08:11:04;;;;;;;29.42;8.73;;;3.50;99.90;;;;;;4906111;28;20140;-82
2021/03/18 08:13:34;;;;;;;28.48;10.07;;;3.70;99.90;;;;;;4906190;28;20537;-81
2021/03/18 08:15:57;;;;;;;22.80;9.40;;;3.90;99.90;;;;;;4909118;28;25766;-82
2021/03/18 08:18:38;;;;;;;21.40;9.93;;;4.20;99.90;;;;;;4908637;28;20166;-82
2021/03/18 08:21:09;;;;;;;20.15;9.40;;;4.40;99.90;;;;;;4923931;28;20079;-80
2021/03/18 08:23:40;;;;;;;19.17;9.60;;;4.40;99.90;;;;;;4923800;28;20129;-81
2021/03/18 08:26:06;;;;;;;20.35;9.65;;;4.50;99.90;;;;;;4923439;28;20090;-81
2021/03/18 08:28:38;;;;;;;23.95;10.02;;;5.20;99.90;;;;;;4924929;28;20083;-80
2021/03/18 08:31:01;;;;;;;22.85;10.27;;;5.80;99.90;;;;;;4922455;28;20094;-81
2021/03/18 08:33:34;;;;;;;19.88;9.10;;;6.40;99.90;;;;;;4924288;28;20217;-82
2021/03/18 08:36:19;;;;;;;18.95;8.40;;;6.70;99.90;;;;;;4914845;28;20536;-81
2021/03/18 08:38:43;;;;;;;13.95;7.55;;;7.60;99.90;;;;;;4921262;28;20434;-82
2021/03/18 08:41:06;;;;;;;16.58;6.97;;;8.90;99.90;;;;;;4923645;28;20555;-81
2021/03/18 08:43:29;;;;;;;14.50;7.03;;;10.50;99.90;;;;;;4921528;28;20116;-81
2021/03/18 08:45:53;;;;;;;13.52;6.63;;;;;;;;;;4922974;28;20080;-81
2021/03/18 08:48:19;;;;;;;10.73;5.35;;;13.40;99.90;;;;;;4923214;28;20078;-82
2021/03/18 08:51:03;;;;;;;11.05;4.18;;;13.20;99.90;;;;;;4921633;28;20123;-81
2021/03/18 08:53:32;;;;;;;8.00;4.18;;;13.30;99.90;;;;;;4923584;28;20123;-81
2021/03/18 08:55:54;;;;;;;12.07;4.25;;;13.70;99.90;;;;;;4922672;28;20814;-81
2021/03/18 08:58:17;;;;;;;11.40;4.18;;;14.50;99.90;;;;;;4921637;28;20055;-80
2021/03/18 09:01:14;;;;;;;8.88;3.50;;;14.70;99.90;;;;;;4912178;28;20051;-81
2021/03/18 09:03:48;;;;;;;8.73;3.45;;;13.80;99.90;;;;;;4848046;28;20442;-82
2021/03/18 09:06:43;;;;;;;6.68;3.00;;;11.60;99.90;;;;;;4835094;28;21082;-81
2021/03/18 09:09:42;;;;;;;6.95;2.17;;;10.70;99.90;;;;;;4832544;28;20083;-81
2021/03/18 09:15:31;;;;;;;5.25;2.17;;;9.50;99.90;;;;;;4838990;28;20080;-82
2021/03/18 09:18:25;;;;;;;7.55;1.90;;;8.70;99.90;;;;;;4849143;28;20093;-81
2021/03/18 09:21:03;;;;;;;2.45;0.50;;;9.30;99.90;;;;;;4861680;28;20171;-80
2021/03/18 09:23:49;;;;;;;1.92;0.40;;;8.10;99.90;;;;;;4849841;28;20123;-82
2021/03/18 09:32:53;;;;;;;4.50;0.47;;;8.60;99.90;;;;;;4848266;28;20081;-82
2021/03/18 09:42:26;;;;;;;4.93;0.73;;;7.40;99.90;;;;;;4851194;28;20090;-80
2021/03/18 09:44:57;;;;;;;4.30;0.98;;;7.00;99.90;;;;;;4854616;28;20085;-81
2021/03/18 09:51:22;;;;;;;2.60;1.00;;;7.60;99.90;;;;;;4846763;28;20129;-81
2021/03/18 09:57:55;;;;;;;1.95;0.70;;;8.10;99.90;;;;;;4855917;28;20167;-81
2021/03/18 10:00:53;;;;;;;0.45;0.32;;;7.80;99.90;;;;;;4853056;28;20094;-82
2021/03/18 10:03:54;;;;;;;4.43;0.80;;;7.80;99.90;;;;;;4842556;28;20093;-81
2021/03/18 10:14:06;;;;;;;2.42;0.30;;;8.40;99.90;;;;;;4848357;28;20087;-82
2021/03/18 10:19:46;;;;;;;0.57;0.28;;;;;;;;;;4857326;28;20098;-80
2021/03/18 10:35:36;;;;;;;1.67;0.30;;;6.60;99.90;;;;;;4848398;28;20090;-81
2021/03/18 10:39:00;;;;;;;0.70;0.30;;;6.80;99.90;;;;;;4853789;28;20091;-80
2021/03/18 10:41:35;;;;;;;2.75;0.30;;;7.10;99.90;;;;;;4863210;28;20091;-79
2021/03/18 10:48:16;;;;;;;2.08;0.50;;;7.50;99.90;;;;;;4829430;28;20102;-81
2021/03/18 10:50:41;;;;;;;1.38;0.40;;;7.40;99.90;;;;;;4852941;28;20089;-81
2021/03/18 10:53:06;;;;;;;0.25;0.20;;;7.40;99.90;;;;;;4892978;28;20117;-80
2021/03/18 10:55:32;;;;;;;1.83;0.22;;;7.40;99.90;;;;;;4925641;28;20544;-82
2021/03/18 10:58:04;;;;;;;2.20;0.40;;;7.30;99.90;;;;;;4900930;28;20086;-80
2021/03/18 11:00:29;;;;;;;1.13;0.20;;;7.70;99.90;;;;;;4907910;28;20473;-82
2021/03/18 11:03:04;;;;;;;1.52;0.43;;;8.00;99.90;;;;;;4910823;28;20169;-82
2021/03/18 11:05:32;;;;;;;5.43;0.28;;;8.30;99.90;;;;;;4907425;28;20115;-80
2021/03/18 11:07:57;;;;;;;1.50;0.40;;;7.90;99.90;;;;;;4912907;28;20489;-82
2021/03/18 11:10:20;;;;;;;2.47;0.52;;;7.90;99.90;;;;;;4908274;28;20082;-81
2021/03/18 11:12:55;;;;;;;3.40;0.32;;;7.80;99.90;;;;;;4899651;28;20152;-81
2021/03/18 11:15:18;;;;;;;1.13;0.50;;;;;;;;;;4908275;28;20500;-82
2021/03/18 11:17:41;;;;;;;2.85;0.50;;;7.60;99.90;;;;;;4905712;28;20177;-81
2021/03/18 11:20:09;;;;;;;0.65;0.40;;;7.70;99.90;;;;;;4907771;28;20089;-81
2021/03/18 11:22:32;;;;;;;3.20;0.50;;;7.60;99.90;;;;;;4908034;28;20111;-81
2021/03/18 11:25:01;;;;;;;1.48;0.35;;;7.70;99.90;;;;;;4906119;28;20084;-81
2021/03/18 11:27:28;;;;;;;3.65;0.52;;;7.50;99.90;;;;;;4905014;28;20636;-81
2021/03/18 11:29:57;;;;;;;4.03;0.60;;;7.40;99.90;;;;;;4916061;28;20134;-81
2021/03/18 11:32:22;;;;;;;0.50;0.30;;;7.40;99.90;;;;;;4915502;28;20139;-81
2021/03/18 11:34:45;;;;;;;;;;;7.30;99.90;;;;;;4926193;28;20170;-82
2021/03/18 11:37:09;;;;;;;2.65;0.60;;;7.20;99.90;;;;;;4926339;28;19965;-82
2021/03/18 11:39:33;;;;;;;1.65;0.40;;;7.30;99.90;;;;;;4922952;28;20112;-82
2021/03/18 11:41:58;;;;;;;1.48;0.55;;;7.10;99.90;;;;;;4923968;28;20434;-81
2021/03/18 11:44:22;;;;;;;2.25;0.57;;;7.30;99.90;;;;;;4924925;28;20119;-80
2021/03/18 11:46:46;;;;;;;2.90;0.55;;;7.20;99.90;;;;;;4914025;28;20096;-83
2021/03/18 11:49:08;;;;;;;0.93;0.40;;;7.20;99.90;;;;;;4915329;28;20103;-80
2021/03/18 11:51:31;;;;;;;2.55;0.52;;;7.30;99.90;;;;;;4926582;28;20090;-82
2021/03/18 11:53:54;;;;;;;0.57;0.30;;;7.40;99.90;;;;;;4921782;28;20085;-81
2021/03/18 11:56:17;;;;;;;0.75;0.40;;;7.20;99.90;;;;;;4925938;28;20611;-82
2021/03/18 11:58:43;;;;;;;1.27;0.35;;;;;;;;;;4909252;28;20177;-81
2021/03/18 12:01:05;;;;;;;0.77;0.50;;;7.30;99.90;;;;;;4903740;28;20140;-80
2021/03/18 12:03:28;;;;;;;1.80;0.50;;;7.40;99.90;;;;;;4925343;28;20090;-81
2021/03/18 12:05:52;;;;;;;1.80;0.60;;;7.40;99.90;;;;;;4924590;28;20239;-81
2021/03/18 12:08:15;;;;;;;0.55;0.35;;;7.30;99.90;;;;;;4921130;28;20120;-81
2021/03/18 12:10:40;;;;;;;3.50;0.57;;;7.40;99.90;;;;;;4925706;28;20172;-80
2021/03/18 12:13:03;;;;;;;2.55;0.35;;;7.50;99.90;;;;;;4924052;28;20089;-81
2021/03/18 12:15:26;;;;;;;4.47;0.77;;;7.50;99.90;;;;;;4922814;28;20734;-80
2021/03/18 12:17:49;;;;;;;4.05;0.52;;;7.20;99.90;;;;;;4925000;28;20093;-82
2021/03/18 12:20:16;;;;;;;2.28;0.65;;;7.20;99.90;;;;;;4904333;28;20080;-80
2021/03/18 12:22:38;;;;;;;4.00;0.65;;;7.30;99.90;;;;;;4915203;28;20092;-80
2021/03/18 12:25:02;;;;;;;3.13;0.70;;;6.90;99.90;;;;;;4915806;28;20180;-80
2021/03/18 12:27:25;;;;;;;10.00;0.82;;;6.60;99.90;;;;;;4916855;28;20128;-80
2021/03/18 12:29:48;;;;;;;1.50;0.43;;;6.60;99.90;;;;;;4924122;28;20109;-81
2021/03/18 12:32:13;;;;;;;1.67;0.65;;;6.50;99.90;;;;;;4913893;28;20098;-80
2021/03/18 12:34:36;;;;;;;4.03;0.82;;;6.70;99.90;;;;;;4921392;28;20537;-81
2021/03/18 12:36:59;;;;;;;1.13;0.40;;;6.60;99.90;;;;;;4926314;28;20426;-81
2021/03/18 12:39:23;;;;;;;2.20;0.63;;;6.60;99.90;;;;;;4925265;28;20581;-80
2021/03/18 12:41:47;;;;;;;3.78;0.90;;;6.30;99.90;;;;;;4924271;28;20178;-79
2021/03/18 12:44:12;;;;;;;3.17;0.80;;;6.30;99.90;;;;;;4925184;28;20096;-79
2021/03/18 12:46:35;;;;;;;2.50;0.90;;;6.10;99.90;;;;;;4912706;28;20087;-79
2021/03/18 12:48:59;;;;;;;2.30;1.02;;;6.10;99.90;;;;;;4913966;28;20535;-80
2021/03/18 12:51:23;;;;;;;3.42;0.80;;;6.10;99.90;;;;;;4925058;28;21159;-80
2021/03/18 12:53:45;;;;;;;4.38;0.77;;;5.90;99.90;;;;;;4925282;28;20155;-80
2021/03/18 12:56:08;;;;;;;4.30;1.00;;;5.80;99.90;;;;;;4924167;28;20103;-80
2021/03/18 12:58:31;;;;;;;5.15;0.77;;;5.90;99.90;;;;;;4925114;28;20114;-79
2021/03/18 13:00:54;;;;;;;8.35;1.08;;;5.90;99.90;;;;;;4925131;28;20131;-80
2021/03/18 13:03:17;;;;;;;4.35;0.90;;;5.80;99.90;;;;;;4926504;28;20097;-80
2021/03/18 13:05:41;;;;;;;2.50;0.70;;;5.80;99.90;;;;;;4925116;28;20094;-80
2021/03/18 13:08:05;;;;;;;1.95;0.60;;;5.70;99.90;;;;;;4924786;28;20101;-79
2021/03/18 13:10:27;;;;;;;4.47;0.60;;;5.70;99.90;;;;;;4925100;28;20118;-79
2021/03/18 13:12:52;;;;;;;1.85;0.80;;;5.60;99.90;;;;;;4913147;28;20166;-79
2021/03/18 13:15:16;;;;;;;5.18;0.98;;;5.60;99.90;;;;;;4921920;28;20150;-80
2021/03/18 13:17:41;;;;;;;5.10;0.60;;;5.80;99.90;;;;;;4925685;28;20162;-79
2021/03/18 13:20:06;;;;;;;1.63;0.50;;;5.90;99.90;;;;;;4928310;28;20094;-79
2021/03/18 13:22:30;;;;;;;2.10;0.80;;;6.00;99.90;;;;;;4916213;28;20445;-80
2021/03/18 13:24:53;;;;;;;4.80;1.30;;;6.00;99.90;;;;;;4928847;28;20197;-80
2021/03/18 13:27:15;;;;;;;3.15;0.65;;;5.90;99.90;;;;;;4923882;28;20090;-79
2021/03/18 13:29:38;;;;;;;3.15;1.05;;;5.90;99.90;;;;;;4927841;28;20113;-79
2021/03/18 13:32:01;;;;;;;3.47;0.70;;;5.80;99.90;;;;;;4926496;28;20169;-78
2021/03/18 13:34:23;;;;;;;2.53;0.68;;;5.70;99.90;;;;;;4918131;28;20087;-80